createdAt,value
2023-04-08T00:23:44.295Z,74.10
2023-04-08T00:26:11.060Z,74.00
2023-04-08T00:28:38.291Z,74.10
2023-04-08T00:31:05.345Z,74.20
2023-04-08T00:33:32.506Z,74.00
2023-04-08T01:08:14.805Z,73.90
2023-04-08T03:23:55.304Z,74.60
2023-04-08T03:26:22.053Z,74.40
2023-04-08T03:28:48.991Z,74.50
2023-04-08T03:31:16.033Z,74.50
2023-04-08T03:48:56.657Z,74.40
2023-04-08T03:51:23.561Z,74.20
2023-04-08T03:53:50.321Z,74.30
2023-04-08T03:56:16.998Z,74.40
2023-04-08T03:58:43.659Z,74.40
2023-04-08T04:01:10.576Z,74.30
2023-04-08T04:03:37.406Z,74.30
2023-04-08T04:21:28.513Z,73.90
2023-04-08T04:23:55.640Z,73.60
2023-04-08T04:26:22.325Z,73.80
2023-04-08T04:53:12.487Z,73.90
2023-04-08T04:55:39.370Z,74.00
2023-04-08T04:58:06.608Z,74.10
2023-04-08T05:00:33.427Z,74.20
2023-04-08T05:03:00.620Z,74.10
2023-04-08T05:05:27.330Z,74.10
2023-04-08T05:07:54.008Z,74.00
2023-04-08T10:29:18.147Z,73.40
2023-04-08T10:31:47.494Z,73.30
2023-04-08T10:34:26.263Z,73.70
2023-04-08T10:36:55.408Z,73.70
2023-04-08T11:49:51.559Z,68.80
2023-04-08T11:52:18.250Z,69.20
2023-04-08T11:54:44.947Z,68.20
2023-04-08T12:09:46.938Z,69.80
2023-04-08T12:12:13.606Z,69.70
2023-04-08T12:14:40.388Z,66.80
2023-04-08T12:17:07.213Z,67.30
2023-04-08T12:19:34.835Z,68.90
2023-04-08T12:22:03.405Z,69.10
2023-04-08T12:24:30.169Z,68.80
2023-04-08T12:26:56.777Z,69.50
2023-04-08T12:29:23.430Z,70.20
2023-04-08T12:31:50.189Z,65.70
2023-04-08T12:57:22.933Z,64.20
2023-04-08T12:59:49.589Z,65.30
2023-04-08T13:02:16.512Z,62.90
2023-04-08T13:04:43.216Z,65.60
2023-04-08T13:07:09.844Z,63.10
2023-04-08T13:09:36.688Z,64.30
2023-04-08T13:12:03.715Z,65.20
2023-04-08T13:14:30.458Z,62.70
2023-04-08T13:16:58.124Z,60.40
2023-04-08T13:19:24.784Z,61.30
2023-04-08T13:21:51.373Z,60.80
2023-04-08T13:24:18.205Z,59.30
2023-04-08T13:26:44.889Z,60.20
2023-04-08T13:44:26.164Z,66.80
2023-04-08T13:47:18.961Z,65.20
2023-04-08T13:49:45.652Z,62.70
2023-04-08T14:20:05.467Z,66.70
2023-04-08T14:37:47.108Z,62.50
2023-04-08T14:40:13.824Z,63.80
2023-04-08T14:42:40.640Z,65.00
2023-04-08T14:45:07.929Z,63.50
2023-04-08T14:47:34.633Z,60.90
2023-04-08T14:50:01.305Z,61.20
2023-04-08T14:52:27.970Z,60.50
2023-04-08T14:54:54.614Z,60.20
2023-04-08T14:57:21.266Z,61.10
2023-04-08T14:59:48.098Z,61.30
2023-04-08T15:02:14.928Z,62.70
2023-04-08T15:04:41.631Z,61.80
2023-04-08T15:07:08.518Z,61.10
2023-04-08T15:09:35.361Z,61.40
2023-04-08T15:12:02.632Z,61.00
2023-04-08T15:14:29.344Z,61.90
2023-04-08T15:48:19.400Z,67.90
2023-04-08T17:25:11.531Z,67.90
2023-04-08T17:27:38.194Z,68.30
2023-04-08T17:30:05.228Z,66.40
2023-04-08T17:32:34.221Z,65.70
2023-04-08T17:35:01.961Z,66.80
2023-04-08T17:37:28.632Z,66.40
2023-04-08T17:39:55.563Z,65.70
2023-04-08T18:16:35.615Z,69.30
2023-04-08T18:19:02.272Z,69.90
2023-04-08T18:21:28.928Z,68.80
2023-04-08T18:23:55.542Z,68.70
2023-04-08T18:26:22.189Z,68.70
2023-04-08T18:28:48.791Z,69.10
2023-04-08T22:48:35.532Z,74.40
2023-04-08T22:51:02.199Z,74.30
2023-04-08T22:53:28.822Z,74.40
2023-04-08T22:55:55.400Z,74.40
2023-04-08T22:58:21.986Z,74.30
2023-04-08T23:23:55.164Z,73.60
2023-04-08T23:26:22.102Z,73.60
2023-04-08T23:28:48.795Z,73.70
2023-04-08T23:31:15.787Z,73.70
2023-04-08T23:33:42.519Z,73.70
2023-04-08T23:36:10.673Z,73.70
2023-04-08T23:38:37.520Z,73.70
2023-04-08T23:41:04.973Z,73.60
2023-04-08T23:43:31.862Z,73.50
2023-04-08T23:45:58.709Z,73.50
